Time;durP1;ratioP1;P1;durP2;ratioP2;P2;SDS_P1;SDS_P2;PMS_P1;PMS_P2;Temp;Humidity;BMP_temperature;BMP_pressure;BME280_temperature;BME280_humidity;BME280_pressure;Samples;Min_cycle;Max_cycle;Signal;HPM_P1;HPM_P2
2022/08/23 00:01:39;;;;;;;21.37;13.23;;;;;;;-141.28;100.00;49611.91;5106389;28;20199;-75
2022/08/23 00:04:11;;;;;;;17.93;12.13;;;;;;;-141.28;100.00;49537.34;5105058;28;20206;-74
2022/08/23 00:06:40;;;;;;;18.00;12.40;;;;;;;-141.28;100.00;49470.63;5093387;28;20674;-76
2022/08/23 00:09:08;;;;;;;22.87;13.83;;;;;;;-141.28;100.00;49396.06;5093614;28;20654;-75
2022/08/23 00:11:38;;;;;;;20.93;13.07;;;;;;;-141.28;100.00;49309.72;5103132;28;20281;-74
2022/08/23 00:14:09;;;;;;;19.03;13.90;;;;;;;-141.28;100.00;49217.50;5110726;28;20214;-75
2022/08/23 00:16:37;;;;;;;19.00;13.13;;;;;;;-141.28;100.00;49105.66;5080964;28;20222;-74
2022/08/23 00:19:08;;;;;;;18.63;13.23;;;;;;;-141.28;100.00;49031.09;5093388;28;20192;-76
2022/08/23 00:21:35;;;;;;;23.33;13.40;;;;;;;-141.28;100.00;48954.59;5093324;28;20293;-76
2022/08/23 00:24:02;;;;;;;20.80;14.73;;;;;;;-141.28;100.00;48878.06;5097982;28;20320;-75
2022/08/23 00:26:55;;;;;;;20.33;14.70;;;;;;;-141.28;100.00;48878.06;5101963;28;20203;-76
2022/08/23 00:29:26;;;;;;;23.00;15.17;;;;;;;-141.28;100.00;48801.56;5102602;28;20195;-75
2022/08/23 00:31:54;;;;;;;20.50;14.10;;;;;;;-141.28;100.00;48681.88;5106073;28;20199;-74
2022/08/23 00:34:23;;;;;;;24.50;15.00;;;;;;;-141.28;100.00;48646.56;5094612;28;20231;-74
2022/08/23 00:36:50;;;;;;;23.10;14.80;;;;;;;-141.28;100.00;48583.78;5104492;28;20195;-75
2022/08/23 00:39:19;;;;;;;25.10;15.03;;;;;;;-141.28;100.00;48560.25;5106454;28;20194;-77
2022/08/23 00:41:48;;;;;;;22.70;15.07;;;;;;;-141.28;100.00;48521.00;5092901;28;20202;-76
2022/08/23 00:50:01;;;;;;;23.10;15.30;;;;;;;-141.28;100.00;48517.09;5112524;28;20624;-75
2022/08/23 00:52:34;;;;;;;22.17;15.33;;;;;;;-141.28;100.00;48446.47;5101686;28;20227;-74
2022/08/23 00:55:02;;;;;;;22.03;15.30;;;;;;;-141.28;100.00;48385.66;5098099;28;20226;-77
2022/08/23 00:57:30;;;;;;;26.47;15.43;;;;;;;-141.28;100.00;48352.31;5100018;28;20203;-78
2022/08/23 00:59:59;;;;;;;23.53;15.37;;;;;;;-141.28;100.00;48324.84;5098117;28;20203;-75
2022/08/23 01:02:27;;;;;;;20.67;15.17;;;;;;;-141.28;100.00;48324.84;5099230;28;20200;-75
2022/08/23 01:04:59;;;;;;;23.00;15.27;;;;;;;-141.28;100.00;48318.97;5079031;28;20204;-74
2022/08/23 01:07:36;;;;;;;20.37;15.23;;;;;;;-141.28;100.00;48301.31;5092372;28;20191;-74
2022/08/23 01:10:10;;;;;;;21.43;15.10;;;;;;;-141.28;100.00;48297.38;5092351;28;20680;-75
2022/08/23 01:12:41;;;;;;;22.53;15.10;;;;;;;-141.28;100.00;48285.59;5092266;28;20681;-76
2022/08/23 01:15:15;;;;;;;23.67;15.90;;;;;;;-141.28;100.00;48273.84;5092769;28;20219;-75
2022/08/23 01:17:46;;;;;;;25.63;17.53;;;;;;;-141.28;100.00;48269.91;5093107;28;20191;-74
2022/08/23 01:20:23;;;;;;;25.40;16.57;;;;;;;-141.28;100.00;48234.59;5092330;28;20202;-76
2022/08/23 01:22:56;;;;;;;21.67;15.93;;;;;;;-141.28;100.00;48215.00;5105703;28;20567;-75
2022/08/23 01:25:29;;;;;;;25.60;15.57;;;;;;;-141.28;100.00;48187.53;5091997;28;20207;-75
2022/08/23 01:27:56;;;;;;;23.23;15.73;;;;;;;-141.28;100.00;48160.06;5111403;28;20564;-74
2022/08/23 01:30:28;;;;;;;21.63;14.33;;;;;;;-141.28;100.00;48144.38;5096742;28;20227;-74
2022/08/23 01:32:58;;;;;;;19.17;13.33;;;;;;;-141.28;100.00;48154.19;5091575;28;20199;-75
2022/08/23 01:35:33;;;;;;;21.97;14.03;;;;;;;-141.28;100.00;48148.31;5091642;28;20255;-74
2022/08/23 01:38:01;;;;;;;23.83;14.70;;;;;;;-141.28;100.00;48171.84;5105029;28;20304;-78
2022/08/23 01:40:31;;;;;;;22.23;14.57;;;;;;;-141.28;100.00;48120.84;5091709;28;20199;-75
2022/08/23 01:42:58;;;;;;;21.30;13.90;;;;;;;-141.28;100.00;48113.00;5110125;28;20691;-75
2022/08/23 01:45:26;;;;;;;19.00;13.33;;;;;;;-141.28;100.00;48097.31;5099453;28;20199;-75
2022/08/23 01:47:53;;;;;;;24.43;14.17;;;;;;;-141.28;100.00;48089.47;5110152;28;20255;-75
2022/08/23 01:50:21;;;;;;;26.97;13.90;;;;;;;-141.28;100.00;48081.59;5098417;28;20195;-74
2022/08/23 01:52:48;;;;;;;20.17;13.70;;;;;;;-141.28;100.00;48077.69;5110743;28;20226;-77
2022/08/23 01:55:16;;;;;;;21.73;13.60;;;;;;;-141.28;100.00;48073.75;5111093;28;20223;-76
2022/08/23 01:57:47;;;;;;;20.00;13.67;;;;;;;-141.28;100.00;48071.81;5106046;28;20206;-75
2022/08/23 02:00:16;;;;;;;27.00;15.50;;;;;;;-141.28;100.00;48063.97;5091586;28;20203;-75
2022/08/23 02:02:45;;;;;;;21.00;14.80;;;;;;;-141.28;100.00;48050.22;5091510;28;20188;-76
2022/08/23 02:05:13;;;;;;;23.63;15.77;;;;;;;-141.28;100.00;48038.47;5091724;28;20218;-75
2022/08/23 02:07:40;;;;;;;22.23;15.40;;;;;;;-141.28;100.00;48012.97;5091555;28;20195;-74
2022/08/23 02:10:08;;;;;;;25.83;15.63;;;;;;;-141.28;100.00;48020.81;5105295;28;20198;-73
2022/08/23 02:12:35;;;;;;;19.63;15.97;;;;;;;-141.28;100.00;48003.16;5091056;28;20191;-75
2022/08/23 02:15:04;;;;;;;21.27;15.27;;;;;;;-141.28;100.00;48022.75;5103949;28;20253;-73
2022/08/23 02:17:32;;;;;;;22.63;15.07;;;;;;;-141.28;100.00;48022.75;5091138;28;20195;-75
2022/08/23 02:20:01;;;;;;;24.27;16.70;;;;;;;-141.28;100.00;48022.75;5091538;28;20195;-75
2022/08/23 02:22:30;;;;;;;23.77;16.03;;;;;;;-141.28;100.00;48030.63;5108242;28;20650;-75
2022/08/23 02:25:00;;;;;;;24.00;15.03;;;;;;;-141.28;100.00;48022.75;5091259;28;20195;-77
2022/08/23 02:27:28;;;;;;;20.33;13.90;;;;;;;-141.28;100.00;48038.47;5090819;28;20284;-75
2022/08/23 02:29:55;;;;;;;18.73;13.80;;;;;;;-141.28;100.00;48054.16;5091001;28;20191;-77
2022/08/23 02:32:24;;;;;;;20.47;13.63;;;;;;;-141.28;100.00;48065.91;5090786;28;20666;-74
2022/08/23 02:34:52;;;;;;;21.20;12.90;;;;;;;-141.28;100.00;48073.75;5091769;28;20231;-74
2022/08/23 02:37:19;;;;;;;16.83;11.07;;;;;;;-141.28;100.00;48097.31;5103440;28;20201;-75
2022/08/23 02:39:47;;;;;;;16.97;12.60;;;;;;;-141.28;100.00;48109.06;5104443;28;20210;-76
2022/08/23 02:42:14;;;;;;;17.67;12.30;;;;;;;-141.28;100.00;48134.56;5090887;28;20195;-75
2022/08/23 02:44:41;;;;;;;16.47;11.13;;;;;;;-141.28;100.00;48156.16;5110325;28;20289;-75
2022/08/23 02:47:10;;;;;;;16.57;11.60;;;;;;;-141.28;100.00;48124.75;5114802;28;20610;-74
2022/08/23 02:49:39;;;;;;;17.53;11.20;;;;;;;-141.28;100.00;48205.19;5108598;28;20256;-75
2022/08/23 02:52:07;;;;;;;18.07;11.47;;;;;;;-141.28;100.00;48224.81;5094818;28;20231;-74
2022/08/23 02:54:34;;;;;;;15.57;11.10;;;;;;;-141.28;100.00;48250.31;5094606;28;20257;-74
2022/08/23 02:57:01;;;;;;;16.47;11.60;;;;;;;-141.28;100.00;48285.59;5106382;28;20601;-76
2022/08/23 02:59:28;;;;;;;14.23;10.33;;;;;;;-141.28;100.00;48305.22;5108740;28;20191;-75
2022/08/23 03:01:57;;;;;;;16.90;10.77;;;;;;;-141.28;100.00;48336.63;5106614;28;20241;-74
2022/08/23 03:04:24;;;;;;;16.73;11.87;;;;;;;-141.28;100.00;48368.00;5095435;28;20198;-76
2022/08/23 03:06:53;;;;;;;18.90;11.70;;;;;;;-141.28;100.00;48383.69;5094774;28;20192;-73
2022/08/23 03:09:20;;;;;;;14.23;10.10;;;;;;;-141.28;100.00;48399.38;5094585;28;20556;-75
2022/08/23 03:11:49;;;;;;;14.47;10.97;;;;;;;-141.28;100.00;48391.53;5098697;28;20214;-74
2022/08/23 03:14:16;;;;;;;14.13;11.20;;;;;;;-141.28;100.00;48379.78;5090286;28;20260;-77
2022/08/23 03:16:44;;;;;;;17.10;11.10;;;;;;;-141.28;100.00;48368.00;5103251;28;20227;-76
2022/08/23 03:19:11;;;;;;;14.50;10.50;;;;;;;-141.28;100.00;48369.97;5108334;28;20210;-73
2022/08/23 03:21:39;;;;;;;13.63;11.00;;;;;;;-141.28;100.00;48373.88;5114281;28;20265;-77
2022/08/23 03:24:07;;;;;;;19.17;11.47;;;;;;;-141.28;100.00;48379.78;5114922;28;20280;-75
2022/08/23 03:26:35;;;;;;;17.67;11.73;;;;;;;-141.28;100.00;48381.72;5094732;28;20219;-76
2022/08/23 03:29:02;;;;;;;16.27;11.70;;;;;;;-141.28;100.00;48352.31;5107325;28;20203;-73
2022/08/23 03:31:30;;;;;;;16.53;11.63;;;;;;;-141.28;100.00;48366.03;5107711;28;20666;-74
2022/08/23 03:33:58;;;;;;;17.30;11.77;;;;;;;-141.28;100.00;48360.16;5104541;28;20227;-78
2022/08/23 03:36:25;;;;;;;14.40;11.13;;;;;;;-141.28;100.00;48364.06;5111888;28;20219;-75
2022/08/23 03:38:52;;;;;;;17.83;12.57;;;;;;;-141.28;100.00;48360.16;5113863;28;20195;-77
2022/08/23 03:41:21;;;;;;;18.53;12.23;;;;;;;-141.28;100.00;48340.53;5114243;28;20203;-77
2022/08/23 03:43:51;;;;;;;16.37;11.40;;;;;;;-141.28;100.00;48346.41;5118389;28;20191;-72
2022/08/23 03:46:23;;;;;;;17.30;12.47;;;;;;;-141.28;100.00;48324.84;5116244;28;20602;-74
2022/08/23 03:48:52;;;;;;;12.03;10.20;;;;;;;-141.28;100.00;48342.50;5115627;28;20643;-74
2022/08/23 03:51:21;;;;;;;12.73;10.17;;;;;;;-141.28;100.00;48340.53;5115487;28;20271;-74
2022/08/23 03:53:49;;;;;;;12.03;8.93;;;;;;;-141.28;100.00;48375.84;5096288;28;20660;-74
2022/08/23 03:56:33;;;;;;;17.00;9.33;;;;;;;-141.28;100.00;48422.94;5096645;28;20231;-75
2022/08/23 03:59:03;;;;;;;21.23;10.37;;;;;;;-141.28;100.00;48368.00;5104182;28;20207;-76
2022/08/23 04:01:32;;;;;;;10.53;8.13;;;;;;;-141.28;100.00;48387.63;5094066;28;20199;-79
2022/08/23 04:04:00;;;;;;;17.67;8.27;;;;;;;-141.28;100.00;48401.34;5093882;28;20195;-75
2022/08/23 04:06:27;;;;;;;14.67;8.23;;;;;;;-141.28;100.00;48399.38;5102311;28;20194;-75
2022/08/23 04:08:55;;;;;;;10.37;6.97;;;;;;;-141.28;100.00;48438.63;5107475;28;20673;-75
2022/08/23 04:11:24;;;;;;;13.00;6.50;;;;;;;-141.28;100.00;48358.19;5093779;28;20211;-77
2022/08/23 04:13:52;;;;;;;14.77;7.00;;;;;;;-141.28;100.00;48454.31;5080128;28;20195;-75
2022/08/23 04:16:19;;;;;;;9.47;6.73;;;;;;;-141.28;100.00;48444.50;5093403;28;20227;-74
2022/08/23 04:18:47;;;;;;;9.50;6.60;;;;;;;-141.28;100.00;48462.16;5093194;28;20202;-74
2022/08/23 04:21:17;;;;;;;8.40;6.30;;;;;;;-141.28;100.00;48477.84;5093050;28;20192;-73
2022/08/23 04:23:44;;;;;;;9.53;6.67;;;;;;;-141.28;100.00;48499.44;5106001;28;20198;-74
2022/08/23 04:26:12;;;;;;;13.00;7.40;;;;;;;-141.28;100.00;48524.94;5093591;28;20195;-75
2022/08/23 04:28:39;;;;;;;10.30;6.47;;;;;;;-141.28;100.00;48560.25;5101235;28;20198;-75
2022/08/23 04:31:08;;;;;;;10.70;6.37;;;;;;;-141.28;100.00;48605.38;5111134;28;20209;-75
2022/08/23 04:33:35;;;;;;;9.13;6.50;;;;;;;-141.28;100.00;48615.19;5093786;28;20199;-76
2022/08/23 04:36:03;;;;;;;8.53;6.30;;;;;;;-141.28;100.00;48642.63;5092378;28;20254;-75
2022/08/23 04:38:31;;;;;;;7.57;5.17;;;;;;;-141.28;100.00;48662.25;5092885;28;20575;-73
2022/08/23 04:43:46;;;;;;;7.83;6.07;;;;;;;-141.28;100.00;48811.34;5092914;28;20203;-75
2022/08/23 04:46:15;;;;;;;10.43;6.33;;;;;;;-141.28;100.00;48787.81;5092805;28;20202;-74
2022/08/23 04:48:43;;;;;;;8.57;5.90;;;;;;;-141.28;100.00;48791.75;5093040;28;20200;-75
2022/08/23 04:51:10;;;;;;;7.90;5.67;;;;;;;-141.28;100.00;48819.22;5092741;28;20590;-76
2022/08/23 04:53:41;;;;;;;7.13;5.87;;;;;;;-141.28;100.00;48854.53;5089543;28;20234;-74
2022/08/23 04:56:09;;;;;;;6.47;5.70;;;;;;;-141.28;100.00;48893.75;5092522;28;20241;-74
2022/08/23 04:58:40;;;;;;;8.63;5.53;;;;;;;-141.28;100.00;48938.88;5092562;28;20210;-75
2022/08/23 05:01:10;;;;;;;7.50;4.80;;;;;;;-141.28;100.00;48999.72;5058928;28;20200;-76
2022/08/23 05:03:39;;;;;;;8.33;6.10;;;;;;;-141.28;100.00;49117.44;5088575;28;20203;-76
2022/08/23 05:06:06;;;;;;;7.43;5.50;;;;;;;-141.28;100.00;49084.06;5092472;28;20214;-74
2022/08/23 05:08:35;;;;;;;7.50;5.40;;;;;;;-141.28;100.00;49113.50;5078372;28;20621;-73
2022/08/23 05:11:04;;;;;;;7.40;5.27;;;;;;;-141.28;100.00;49144.91;5092789;28;20204;-76
2022/08/23 05:13:31;;;;;;;7.97;5.17;;;;;;;-141.28;100.00;49152.75;5092267;28;20697;-75
2022/08/23 05:15:58;;;;;;;9.97;6.10;;;;;;;-141.28;100.00;49188.06;5092919;28;20226;-74
2022/08/23 05:18:27;;;;;;;8.43;5.33;;;;;;;-141.28;100.00;49215.53;5092004;28;20637;-76
2022/08/23 05:20:56;;;;;;;9.10;6.13;;;;;;;-141.28;100.00;49294.03;5092015;28;20210;-74
2022/08/23 05:23:23;;;;;;;11.40;6.03;;;;;;;-141.28;100.00;49343.06;5093605;28;20192;-74
2022/08/23 05:25:54;;;;;;;9.47;5.93;;;;;;;-141.28;100.00;49392.13;5107234;28;20198;-76
2022/08/23 05:28:23;;;;;;;14.43;6.20;;;;;;;-141.28;100.00;49403.91;5100575;28;20194;-77
2022/08/23 05:31:02;;;;;;;9.00;6.50;;;;;;;-141.28;100.00;49503.97;5098668;28;20512;-77
2022/08/23 05:33:30;;;;;;;9.10;5.87;;;;;;;-141.28;100.00;49562.84;5081596;28;20542;-75
2022/08/23 05:36:00;;;;;;;11.50;5.70;;;;;;;-141.28;100.00;49639.38;5105079;28;20223;-76
2022/08/23 05:38:28;;;;;;;11.53;5.70;;;;;;;-141.28;100.00;49660.97;5111687;28;20609;-75
2022/08/23 05:40:58;;;;;;;16.30;6.53;;;;;;;-141.28;100.00;49812.06;5110266;28;20248;-76
2022/08/23 05:43:25;;;;;;;9.93;6.23;;;;;;;-141.28;100.00;49902.34;5093357;28;20195;-76
2022/08/23 05:46:01;;;;;;;8.27;5.30;;;;;;;-141.28;100.00;50106.47;5097478;28;20199;-74
2022/08/23 05:48:28;;;;;;;8.43;5.67;;;;;;;-141.28;100.00;50249.75;5101171;28;20195;-75
2022/08/23 05:50:56;;;;;;;9.73;5.60;;;;;;;-141.28;100.00;50381.25;5108944;28;20205;-74
2022/08/23 05:53:24;;;;;;;6.10;5.13;;;;;;;-141.28;100.00;50552.00;5093188;28;20234;-76
2022/08/23 05:55:52;;;;;;;7.23;5.03;;;;;;;-141.28;100.00;50732.59;5091699;28;20223;-77
2022/08/23 05:58:20;;;;;;;7.93;5.17;;;;;;;-141.28;100.00;50919.09;5105994;28;20202;-76
2022/08/23 06:00:48;;;;;;;7.40;5.40;;;;;;;-141.28;100.00;51040.81;5103859;28;20202;-74
2022/08/23 06:03:16;;;;;;;6.17;5.23;;;;;;;-141.28;100.00;51091.84;5091436;28;20199;-77
2022/08/23 06:05:43;;;;;;;14.57;4.90;;;;;;;-141.28;100.00;51131.13;5091529;28;20248;-74
2022/08/23 06:08:10;;;;;;;7.90;5.30;;;;;;;-141.28;100.00;51197.88;5090665;28;20206;-77
2022/08/23 06:10:40;;;;;;;6.80;5.13;;;;;;;-141.28;100.00;51347.09;5091337;28;20642;-76
2022/08/23 06:13:07;;;;;;;5.10;4.60;;;;;;;-141.28;100.00;51453.09;5093772;28;20222;-75
2022/08/23 06:15:34;;;;;;;5.40;4.90;;;;;;;-141.28;100.00;51496.31;5101133;28;20282;-74
2022/08/23 06:18:01;;;;;;;6.00;4.77;;;;;;;-141.28;100.00;51563.06;5091049;28;20532;-75
2022/08/23 06:20:30;;;;;;;6.60;4.80;;;;;;;-141.28;100.00;51602.34;5101609;28;20198;-76
2022/08/23 06:22:58;;;;;;;5.87;4.13;;;;;;;-141.28;100.00;51570.91;5093445;28;20568;-75
2022/08/23 06:25:26;;;;;;;8.27;4.50;;;;;;;-141.28;100.00;51594.47;5079742;28;20218;-76
2022/08/23 06:27:54;;;;;;;7.67;4.50;;;;;;;-141.28;100.00;51682.84;5089607;28;20210;-76
2022/08/23 06:30:22;;;;;;;8.30;4.23;;;;;;;-141.28;100.00;51755.50;5091410;28;20206;-76
2022/08/23 06:32:50;;;;;;;6.60;4.13;;;;;;;-141.28;100.00;51808.50;5090959;28;20199;-76
2022/08/23 06:35:17;;;;;;;6.33;4.20;;;;;;;-141.28;100.00;51694.63;5091185;28;20224;-75
2022/08/23 06:37:44;;;;;;;6.47;4.60;;;;;;;-141.28;100.00;51480.59;5090739;28;20234;-76
2022/08/23 06:40:12;;;;;;;7.83;4.80;;;;;;;-141.28;100.00;51323.53;5091596;28;20229;-75
2022/08/23 06:42:40;;;;;;;6.00;4.67;;;;;;;-141.28;100.00;51248.91;5109094;28;20568;-75
2022/08/23 06:45:09;;;;;;;8.50;4.30;;;;;;;-141.28;100.00;51201.81;5100431;28;20554;-76
2022/08/23 06:47:37;;;;;;;9.03;4.93;;;;;;;-141.28;100.00;51103.63;5090625;28;20238;-75
2022/08/23 06:50:05;;;;;;;6.37;4.37;;;;;;;-141.28;100.00;51058.47;5104047;28;20200;-75
2022/08/23 06:52:32;;;;;;;6.90;4.33;;;;;;;-141.28;100.00;51082.03;5093945;28;20232;-73
2022/08/23 06:55:01;;;;;;;5.13;4.40;;;;;;;-141.28;100.00;51129.16;5096969;28;20199;-74
2022/08/23 06:57:27;;;;;;;7.30;5.00;;;;;;;-141.28;100.00;51172.34;5091788;28;20255;-76
2022/08/23 06:59:54;;;;;;;6.83;5.13;;;;;;;-141.28;100.00;51256.78;5091330;28;20200;-74
2022/08/23 07:02:23;;;;;;;6.13;5.43;;;;;;;-141.28;100.00;51288.19;5090849;28;20229;-74
2022/08/23 07:04:52;;;;;;;12.10;5.50;;;;;;;-141.28;100.00;51294.06;5090638;28;20195;-75
2022/08/23 07:07:20;;;;;;;7.60;5.03;;;;;;;-141.28;100.00;51286.22;5090568;28;20200;-74
2022/08/23 07:09:47;;;;;;;10.53;5.30;;;;;;;-141.28;100.00;51256.78;5090618;28;20203;-74
2022/08/23 07:12:18;;;;;;;8.27;5.40;;;;;;;-141.28;100.00;51429.53;5104552;28;20326;-75
2022/08/23 07:14:45;;;;;;;7.50;5.10;;;;;;;-141.28;100.00;51576.81;5100956;28;20203;-76
2022/08/23 07:17:16;;;;;;;8.37;6.20;;;;;;;-141.28;100.00;51653.38;5093332;28;20738;-78
2022/08/23 07:19:44;;;;;;;10.83;7.00;;;;;;;-141.28;100.00;51629.81;5099924;28;20194;-75
2022/08/23 07:22:12;;;;;;;7.73;6.60;;;;;;;-141.28;100.00;51486.50;5094221;28;21199;-74
2022/08/23 07:24:39;;;;;;;7.07;5.53;;;;;;;-141.28;100.00;51488.44;5100543;28;20200;-76
2022/08/23 07:27:08;;;;;;;9.97;6.30;;;;;;;-141.28;100.00;51578.78;5092730;28;20201;-74
2022/08/23 07:29:38;;;;;;;8.93;7.17;;;;;;;-141.28;100.00;51567.00;5113597;28;20549;-76
2022/08/23 07:32:06;;;;;;;13.40;6.73;;;;;;;-141.28;100.00;51574.84;5099537;28;20197;-76
2022/08/23 07:34:33;;;;;;;8.00;6.30;;;;;;;-141.28;100.00;51429.53;5098872;28;20216;-77
2022/08/23 07:37:02;;;;;;;9.37;6.33;;;;;;;-141.28;100.00;51508.09;5105984;28;20716;-76
2022/08/23 07:39:31;;;;;;;9.00;6.30;;;;;;;-141.28;100.00;51539.50;5084935;28;20282;-77
2022/08/23 07:41:59;;;;;;;10.67;6.37;;;;;;;-141.28;100.00;51694.63;5099475;28;20216;-76
2022/08/23 07:44:28;;;;;;;10.07;6.30;;;;;;;-141.28;100.00;51720.16;5107601;28;20252;-75
2022/08/23 07:46:56;;;;;;;8.70;7.17;;;;;;;-141.28;100.00;51602.34;5093666;28;20227;-75
2022/08/23 07:49:24;;;;;;;11.03;7.53;;;;;;;-141.28;100.00;51582.69;5093653;28;20658;-76
2022/08/23 07:51:51;;;;;;;10.50;7.10;;;;;;;-141.28;100.00;51531.66;5093782;28;20263;-76
2022/08/23 07:54:24;;;;;;;10.07;6.90;;;;;;;-141.28;100.00;51484.53;5093724;28;20199;-76
2022/08/23 07:56:51;;;;;;;11.40;6.90;;;;;;;-141.28;100.00;51445.25;5093802;28;20310;-78
2022/08/23 07:59:18;;;;;;;10.07;6.40;;;;;;;-141.28;100.00;51425.63;5106900;28;20201;-75
2022/08/23 08:01:45;;;;;;;12.60;6.90;;;;;;;-141.28;100.00;51413.84;5093645;28;20195;-77
2022/08/23 08:04:13;;;;;;;10.40;7.20;;;;;;;-141.28;100.00;51394.22;5093335;28;20724;-74
2022/08/23 08:06:42;;;;;;;7.97;6.53;;;;;;;-141.28;100.00;51366.72;5110393;28;20199;-74
2022/08/23 08:09:11;;;;;;;13.87;6.73;;;;;;;-141.28;100.00;51351.00;5103402;28;20203;-75
2022/08/23 08:11:42;;;;;;;7.67;6.23;;;;;;;-141.28;100.00;51394.22;5093376;28;20197;-76
2022/08/23 08:14:10;;;;;;;9.33;6.10;;;;;;;-141.28;100.00;51354.94;5093280;28;20676;-74
2022/08/23 08:16:39;;;;;;;9.23;6.57;;;;;;;-141.28;100.00;51437.41;5093075;28;20278;-76
2022/08/23 08:19:09;;;;;;;9.97;6.40;;;;;;;-141.28;100.00;51415.81;5075494;28;20209;-74
2022/08/23 08:21:40;;;;;;;11.80;7.10;;;;;;;-141.28;100.00;51445.25;5093439;28;20200;-74
2022/08/23 08:24:09;;;;;;;8.90;6.50;;;;;;;-141.28;100.00;51413.84;5107126;28;20196;-76
2022/08/23 08:26:37;;;;;;;8.70;6.53;;;;;;;-141.28;100.00;51351.00;5106881;28;20219;-74
2022/08/23 08:29:06;;;;;;;8.27;6.90;;;;;;;-141.28;100.00;51221.44;5106443;28;20199;-78
2022/08/23 08:31:35;;;;;;;14.57;7.20;;;;;;;-141.28;100.00;51207.69;5093142;28;20610;-74
2022/08/23 08:34:02;;;;;;;10.40;7.27;;;;;;;-141.28;100.00;51276.41;5093741;28;20649;-75
2022/08/23 08:36:32;;;;;;;10.47;7.60;;;;;;;-141.28;100.00;51292.13;5092799;28;20712;-75
2022/08/23 08:38:59;;;;;;;9.63;7.73;;;;;;;-141.28;100.00;51315.66;5093108;28;20196;-75
2022/08/23 08:41:37;;;;;;;9.57;7.23;;;;;;;-141.28;100.00;51358.88;5092681;28;20569;-75
2022/08/23 08:44:13;;;;;;;14.47;8.27;;;;;;;-141.28;100.00;51480.59;5091987;28;20196;-76
2022/08/23 08:46:45;;;;;;;9.03;7.93;;;;;;;-141.28;100.00;51519.88;5092809;28;20210;-74
2022/08/23 08:49:18;;;;;;;11.53;8.20;;;;;;;-141.28;100.00;51567.00;5092434;28;20282;-75
2022/08/23 08:51:50;;;;;;;10.40;8.63;;;;;;;-141.28;100.00;51582.69;5092452;28;20199;-75
2022/08/23 08:54:24;;;;;;;11.40;9.43;;;;;;;-141.28;100.00;51620.00;5092812;28;20214;-74
2022/08/23 08:56:53;;;;;;;14.37;9.10;;;;;;;-141.28;100.00;51529.69;5102589;28;20291;-77
2022/08/23 08:59:24;;;;;;;11.10;8.43;;;;;;;-141.28;100.00;51565.03;5094992;28;20242;-76
2022/08/23 09:01:52;;;;;;;16.87;9.20;;;;;;;-141.28;100.00;51598.41;5102999;28;20205;-77
2022/08/23 09:04:21;;;;;;;11.53;8.93;;;;;;;-141.28;100.00;51588.59;5103570;28;20281;-75
2022/08/23 09:06:55;;;;;;;13.33;10.23;;;;;;;-141.28;100.00;51559.13;5092306;28;20296;-75
2022/08/23 09:09:46;;;;;;;11.27;9.77;;;;;;;-141.28;100.00;51531.66;5099490;28;20205;-75
2022/08/23 09:12:25;;;;;;;17.50;9.80;;;;;;;-141.28;100.00;51476.66;5109450;28;20560;-74
2022/08/23 09:15:10;;;;;;;12.67;10.23;;;;;;;-141.28;100.00;51484.53;5092127;28;20199;-76
2022/08/23 09:17:43;;;;;;;13.33;10.43;;;;;;;-141.28;100.00;51451.16;5101072;28;20231;-74
2022/08/23 09:20:15;;;;;;;12.30;10.33;;;;;;;-141.28;100.00;51382.44;5092238;28;20220;-74
2022/08/23 09:22:44;;;;;;;15.97;10.27;;;;;;;-141.28;100.00;51441.31;5092683;28;20205;-75
2022/08/23 09:25:18;;;;;;;12.87;9.90;;;;;;;-141.28;100.00;51551.28;5104499;28;20205;-75
2022/08/23 09:27:46;;;;;;;17.53;10.67;;;;;;;-141.28;100.00;51586.63;5091263;28;20670;-76
2022/08/23 09:30:17;;;;;;;13.30;10.87;;;;;;;-141.28;100.00;51657.31;5094079;28;20202;-75
2022/08/23 09:32:49;;;;;;;16.93;10.00;;;;;;;-141.28;100.00;51657.31;5096128;28;20199;-75
2022/08/23 09:35:18;;;;;;;15.03;10.63;;;;;;;-141.28;100.00;51773.16;5105610;28;20305;-75
2022/08/23 09:37:54;;;;;;;15.40;10.90;;;;;;;-141.28;100.00;52008.81;5078602;28;20227;-77
2022/08/23 09:40:29;;;;;;;16.53;11.00;;;;;;;-141.28;100.00;52030.41;5092137;28;20274;-76
2022/08/23 09:43:10;;;;;;;14.67;11.17;;;;;;;-141.28;100.00;52124.66;5091874;28;20281;-74
2022/08/23 09:45:42;;;;;;;13.30;10.47;;;;;;;-141.28;100.00;52105.03;5091528;28;20674;-76
2022/08/23 09:48:15;;;;;;;14.67;10.60;;;;;;;-141.28;100.00;52120.75;5095934;28;20202;-75
2022/08/23 09:50:48;;;;;;;11.97;8.03;;;;;;;-141.28;100.00;52175.72;5090618;28;20734;-76
2022/08/23 09:53:23;;;;;;;9.57;7.50;;;;;;;-141.28;100.00;52167.88;5108356;28;20231;-76
2022/08/23 09:55:52;;;;;;;10.17;7.13;;;;;;;-141.28;100.00;51942.03;5112164;28;20281;-74
2022/08/23 09:58:26;;;;;;;10.03;8.43;;;;;;;-141.28;100.00;51951.84;5094376;28;20222;-76
2022/08/23 10:01:12;;;;;;;9.53;8.40;;;;;;;-141.28;100.00;51973.47;5091477;28;20195;-74
2022/08/23 10:03:42;;;;;;;14.50;9.40;;;;;;;-141.28;100.00;52030.41;5091705;28;20200;-76
2022/08/23 10:06:14;;;;;;;11.77;8.80;;;;;;;-141.28;100.00;52101.09;5107146;28;20202;-75
2022/08/23 10:08:53;;;;;;;10.27;8.37;;;;;;;-141.28;100.00;52053.97;5100406;28;20213;-75
2022/08/23 10:11:24;;;;;;;21.83;9.53;;;;;;;-141.28;100.00;52006.84;5093773;28;20668;-75
2022/08/23 10:13:52;;;;;;;16.60;9.07;;;;;;;-141.28;100.00;51951.84;5091471;28;20199;-76
2022/08/23 10:16:30;;;;;;;12.33;8.50;;;;;;;-141.28;100.00;51889.03;5096196;28;20219;-73
2022/08/23 10:19:06;;;;;;;11.87;8.90;;;;;;;-141.28;100.00;51855.63;5110877;28;20309;-75
2022/08/23 10:21:41;;;;;;;11.20;8.00;;;;;;;-141.28;100.00;51845.81;5099384;28;20606;-76
2022/08/23 10:24:27;;;;;;;16.27;8.87;;;;;;;-141.28;100.00;51841.88;5098914;28;20206;-74
2022/08/23 10:30:02;;;;;;;10.43;8.20;;;;;;;-141.28;100.00;51743.72;5089959;28;20194;-75
2022/08/23 10:32:45;;;;;;;11.40;7.77;;;;;;;-141.28;100.00;51635.72;5104675;28;20244;-73
2022/08/23 10:35:28;;;;;;;10.70;8.00;;;;;;;-141.28;100.00;51500.22;5092434;28;20214;-74
2022/08/23 10:38:11;;;;;;;15.93;8.20;;;;;;;-141.28;100.00;51386.34;5098093;28;20233;-75
2022/08/23 10:40:46;;;;;;;10.17;8.63;;;;;;;-141.28;100.00;51280.34;5099931;28;20396;-75
2022/08/23 10:43:24;;;;;;;11.63;8.53;;;;;;;-141.28;100.00;51158.59;5090814;28;20191;-76
2022/08/23 10:45:53;;;;;;;12.00;7.90;;;;;;;-141.28;100.00;51085.97;5090968;28;20232;-76
2022/08/23 10:48:27;;;;;;;15.20;9.80;;;;;;;-141.28;100.00;50856.28;5090951;28;20200;-77
2022/08/23 10:50:58;;;;;;;13.80;8.50;;;;;;;-141.28;100.00;50620.72;5090993;28;20206;-76
2022/08/23 10:53:34;;;;;;;10.90;8.10;;;;;;;-141.28;100.00;50324.31;5091101;28;20231;-75
2022/08/23 10:56:05;;;;;;;12.77;8.03;;;;;;;-141.28;100.00;50061.31;5104488;28;20225;-74
2022/08/23 10:58:37;;;;;;;12.63;7.97;;;;;;;-141.28;100.00;49988.69;5097994;28;20223;-76
2022/08/23 11:01:06;;;;;;;8.57;7.67;;;;;;;-141.28;100.00;49914.13;5096457;28;20218;-74
2022/08/23 11:03:38;;;;;;;10.60;7.77;;;;;;;-141.28;100.00;49898.44;5104631;28;20581;-76
2022/08/23 11:06:44;;;;;;;10.70;7.60;;;;;;;-141.28;100.00;49810.13;5095504;28;20659;-75
2022/08/23 11:09:38;;;;;;;10.63;7.80;;;;;;;-141.28;100.00;49819.94;5095584;28;20204;-77
2022/08/23 11:12:26;;;;;;;19.90;8.27;;;;;;;-141.28;100.00;50090.75;5095277;28;20596;-76
2022/08/23 11:15:11;;;;;;;8.53;7.73;;;;;;;-141.28;100.00;50043.66;5095340;28;20220;-75
2022/08/23 11:17:53;;;;;;;10.60;6.57;;;;;;;-141.28;100.00;50000.47;5095072;28;20259;-75
2022/08/23 11:20:54;;;;;;;15.37;7.50;;;;;;;-141.28;100.00;49965.16;5094960;28;20208;-75
2022/08/23 11:27:01;;;;;;;12.07;7.17;;;;;;;-141.28;100.00;49761.06;5088799;27;20540;-74
2022/08/23 11:29:36;;;;;;;12.30;7.43;;;;;;;-141.28;100.00;49764.97;5070303;28;20264;-75
2022/08/23 11:32:20;;;;;;;9.40;7.20;;;;;;;-141.28;100.00;49827.78;5071234;28;20194;-75